sensor_id;sensor_type;location;lat;lon;timestamp;P1;durP1;ratioP1;P2;durP2;ratioP2
37379;SDS011;23252;-33.992;18.480;2023-04-25T00:14:54;25.38;;;11.07;;
37379;SDS011;23252;-33.992;18.480;2023-04-25T00:17:22;28.17;;;11.95;;
37379;SDS011;23252;-33.992;18.480;2023-04-25T00:19:52;27.63;;;9.75;;
37379;SDS011;23252;-33.992;18.480;2023-04-25T00:22:19;25.08;;;9.65;;
37379;SDS011;23252;-33.992;18.480;2023-04-25T00:24:46;22.73;;;9.52;;
37379;SDS011;23252;-33.992;18.480;2023-04-25T00:27:13;27.95;;;9.75;;
37379;SDS011;23252;-33.992;18.480;2023-04-25T00:29:40;29.98;;;10.05;;
37379;SDS011;23252;-33.992;18.480;2023-04-25T00:32:07;29.03;;;10.13;;
37379;SDS011;23252;-33.992;18.480;2023-04-25T00:34:33;24.67;;;9.53;;
37379;SDS011;23252;-33.992;18.480;2023-04-25T00:37:00;26.10;;;8.90;;
37379;SDS011;23252;-33.992;18.480;2023-04-25T00:39:30;25.17;;;7.97;;
37379;SDS011;23252;-33.992;18.480;2023-04-25T00:41:56;29.65;;;7.78;;
37379;SDS011;23252;-33.992;18.480;2023-04-25T00:46:52;26.65;;;9.25;;
37379;SDS011;23252;-33.992;18.480;2023-04-25T00:49:20;29.58;;;10.23;;
37379;SDS011;23252;-33.992;18.480;2023-04-25T00:51:47;35.00;;;10.20;;
37379;SDS011;23252;-33.992;18.480;2023-04-25T00:54:14;32.72;;;11.30;;
37379;SDS011;23252;-33.992;18.480;2023-04-25T00:56:41;30.60;;;9.40;;
37379;SDS011;23252;-33.992;18.480;2023-04-25T00:59:08;33.60;;;9.10;;
37379;SDS011;23252;-33.992;18.480;2023-04-25T01:01:35;23.88;;;8.32;;
37379;SDS011;23252;-33.992;18.480;2023-04-25T01:04:03;28.23;;;8.15;;
37379;SDS011;23252;-33.992;18.480;2023-04-25T01:06:29;28.05;;;8.95;;
37379;SDS011;23252;-33.992;18.480;2023-04-25T01:08:57;26.02;;;9.25;;
37379;SDS011;23252;-33.992;18.480;2023-04-25T01:11:24;24.67;;;8.88;;
37379;SDS011;23252;-33.992;18.480;2023-04-25T01:13:51;24.83;;;9.40;;
37379;SDS011;23252;-33.992;18.480;2023-04-25T01:16:17;27.13;;;9.20;;
37379;SDS011;23252;-33.992;18.480;2023-04-25T01:18:45;23.90;;;8.98;;
37379;SDS011;23252;-33.992;18.480;2023-04-25T01:21:12;27.95;;;10.50;;
37379;SDS011;23252;-33.992;18.480;2023-04-25T01:23:40;33.90;;;10.82;;
37379;SDS011;23252;-33.992;18.480;2023-04-25T01:28:37;28.92;;;9.77;;
37379;SDS011;23252;-33.992;18.480;2023-04-25T01:31:07;27.33;;;8.23;;
37379;SDS011;23252;-33.992;18.480;2023-04-25T01:33:34;25.15;;;7.97;;
37379;SDS011;23252;-33.992;18.480;2023-04-25T01:36:00;20.73;;;7.80;;
37379;SDS011;23252;-33.992;18.480;2023-04-25T01:38:27;23.63;;;7.40;;
37379;SDS011;23252;-33.992;18.480;2023-04-25T01:40:54;24.55;;;8.57;;
37379;SDS011;23252;-33.992;18.480;2023-04-25T01:43:21;26.50;;;8.02;;
37379;SDS011;23252;-33.992;18.480;2023-04-25T01:45:49;16.13;;;8.00;;
37379;SDS011;23252;-33.992;18.480;2023-04-25T01:48:16;22.92;;;7.85;;
37379;SDS011;23252;-33.992;18.480;2023-04-25T01:50:43;17.48;;;9.07;;
37379;SDS011;23252;-33.992;18.480;2023-04-25T01:55:38;18.80;;;9.18;;
37379;SDS011;23252;-33.992;18.480;2023-04-25T01:58:05;17.17;;;8.50;;
37379;SDS011;23252;-33.992;18.480;2023-04-25T02:00:35;17.65;;;8.45;;
37379;SDS011;23252;-33.992;18.480;2023-04-25T02:03:04;16.50;;;8.75;;
37379;SDS011;23252;-33.992;18.480;2023-04-25T02:05:34;16.25;;;8.48;;
37379;SDS011;23252;-33.992;18.480;2023-04-25T02:08:02;17.88;;;8.45;;
37379;SDS011;23252;-33.992;18.480;2023-04-25T02:10:30;16.35;;;8.73;;
37379;SDS011;23252;-33.992;18.480;2023-04-25T02:12:57;19.50;;;8.63;;
37379;SDS011;23252;-33.992;18.480;2023-04-25T02:15:23;19.02;;;8.70;;
37379;SDS011;23252;-33.992;18.480;2023-04-25T02:17:50;14.38;;;7.78;;
37379;SDS011;23252;-33.992;18.480;2023-04-25T02:20:23;14.85;;;7.97;;
37379;SDS011;23252;-33.992;18.480;2023-04-25T02:22:50;15.90;;;7.35;;
37379;SDS011;23252;-33.992;18.480;2023-04-25T02:25:17;14.80;;;7.85;;
37379;SDS011;23252;-33.992;18.480;2023-04-25T02:27:45;12.38;;;6.82;;
37379;SDS011;23252;-33.992;18.480;2023-04-25T02:30:12;13.30;;;7.15;;
37379;SDS011;23252;-33.992;18.480;2023-04-25T02:32:39;15.43;;;7.82;;
37379;SDS011;23252;-33.992;18.480;2023-04-25T02:35:06;15.88;;;8.32;;
37379;SDS011;23252;-33.992;18.480;2023-04-25T02:37:34;14.30;;;7.45;;
37379;SDS011;23252;-33.992;18.480;2023-04-25T02:42:28;14.50;;;6.82;;
37379;SDS011;23252;-33.992;18.480;2023-04-25T02:44:54;17.45;;;6.78;;
37379;SDS011;23252;-33.992;18.480;2023-04-25T02:47:21;17.38;;;6.90;;
37379;SDS011;23252;-33.992;18.480;2023-04-25T02:49:47;16.10;;;7.27;;
37379;SDS011;23252;-33.992;18.480;2023-04-25T02:52:14;15.98;;;6.35;;
37379;SDS011;23252;-33.992;18.480;2023-04-25T02:54:40;15.37;;;6.37;;
37379;SDS011;23252;-33.992;18.480;2023-04-25T02:57:07;18.38;;;6.22;;
37379;SDS011;23252;-33.992;18.480;2023-04-25T02:59:34;17.15;;;6.40;;
37379;SDS011;23252;-33.992;18.480;2023-04-25T03:02:00;14.35;;;6.03;;
37379;SDS011;23252;-33.992;18.480;2023-04-25T03:04:27;12.90;;;4.95;;
37379;SDS011;23252;-33.992;18.480;2023-04-25T03:06:53;15.60;;;6.23;;
37379;SDS011;23252;-33.992;18.480;2023-04-25T03:09:20;14.10;;;6.60;;
37379;SDS011;23252;-33.992;18.480;2023-04-25T03:11:46;14.90;;;6.53;;
37379;SDS011;23252;-33.992;18.480;2023-04-25T03:14:13;22.20;;;8.10;;
37379;SDS011;23252;-33.992;18.480;2023-04-25T03:16:40;12.63;;;5.53;;
37379;SDS011;23252;-33.992;18.480;2023-04-25T03:19:06;14.43;;;6.20;;
37379;SDS011;23252;-33.992;18.480;2023-04-25T03:21:33;16.83;;;7.30;;
37379;SDS011;23252;-33.992;18.480;2023-04-25T03:24:02;17.35;;;7.32;;
37379;SDS011;23252;-33.992;18.480;2023-04-25T03:26:29;14.20;;;6.18;;
37379;SDS011;23252;-33.992;18.480;2023-04-25T03:28:56;15.25;;;6.47;;
37379;SDS011;23252;-33.992;18.480;2023-04-25T03:31:22;17.37;;;7.10;;
37379;SDS011;23252;-33.992;18.480;2023-04-25T03:33:49;13.98;;;7.18;;
37379;SDS011;23252;-33.992;18.480;2023-04-25T03:36:15;21.17;;;8.23;;
37379;SDS011;23252;-33.992;18.480;2023-04-25T03:38:42;19.77;;;8.07;;
37379;SDS011;23252;-33.992;18.480;2023-04-25T03:41:08;14.90;;;7.72;;
37379;SDS011;23252;-33.992;18.480;2023-04-25T03:43:35;20.77;;;9.13;;
37379;SDS011;23252;-33.992;18.480;2023-04-25T03:46:01;20.97;;;8.13;;
37379;SDS011;23252;-33.992;18.480;2023-04-25T03:48:28;17.58;;;7.25;;
37379;SDS011;23252;-33.992;18.480;2023-04-25T03:50:54;16.98;;;6.47;;
37379;SDS011;23252;-33.992;18.480;2023-04-25T03:53:21;22.90;;;6.78;;
37379;SDS011;23252;-33.992;18.480;2023-04-25T03:55:47;21.00;;;7.33;;
37379;SDS011;23252;-33.992;18.480;2023-04-25T03:58:14;18.42;;;6.18;;
37379;SDS011;23252;-33.992;18.480;2023-04-25T04:00:40;15.57;;;5.57;;
37379;SDS011;23252;-33.992;18.480;2023-04-25T04:03:06;20.50;;;6.75;;
37379;SDS011;23252;-33.992;18.480;2023-04-25T04:05:33;18.10;;;6.57;;
37379;SDS011;23252;-33.992;18.480;2023-04-25T04:07:59;21.42;;;8.30;;
37379;SDS011;23252;-33.992;18.480;2023-04-25T04:10:26;21.95;;;8.82;;
37379;SDS011;23252;-33.992;18.480;2023-04-25T04:12:52;29.27;;;12.67;;
37379;SDS011;23252;-33.992;18.480;2023-04-25T04:15:19;29.33;;;11.75;;
37379;SDS011;23252;-33.992;18.480;2023-04-25T04:17:46;28.42;;;12.27;;
37379;SDS011;23252;-33.992;18.480;2023-04-25T04:20:13;41.03;;;14.65;;
37379;SDS011;23252;-33.992;18.480;2023-04-25T04:22:40;47.77;;;17.53;;
37379;SDS011;23252;-33.992;18.480;2023-04-25T04:25:06;54.30;;;18.92;;
37379;SDS011;23252;-33.992;18.480;2023-04-25T04:27:33;53.88;;;20.05;;
37379;SDS011;23252;-33.992;18.480;2023-04-25T04:29:59;64.13;;;22.90;;
37379;SDS011;23252;-33.992;18.480;2023-04-25T04:32:26;55.92;;;20.13;;
37379;SDS011;23252;-33.992;18.480;2023-04-25T04:34:55;60.13;;;20.65;;
37379;SDS011;23252;-33.992;18.480;2023-04-25T04:37:22;69.82;;;23.13;;
37379;SDS011;23252;-33.992;18.480;2023-04-25T04:39:49;77.03;;;23.70;;
37379;SDS011;23252;-33.992;18.480;2023-04-25T04:42:15;71.63;;;24.25;;
37379;SDS011;23252;-33.992;18.480;2023-04-25T04:44:42;63.38;;;23.00;;
37379;SDS011;23252;-33.992;18.480;2023-04-25T04:47:09;72.40;;;22.83;;
37379;SDS011;23252;-33.992;18.480;2023-04-25T04:49:39;80.80;;;24.88;;
37379;SDS011;23252;-33.992;18.480;2023-04-25T04:52:05;69.43;;;24.43;;
37379;SDS011;23252;-33.992;18.480;2023-04-25T04:54:32;78.87;;;24.23;;
37379;SDS011;23252;-33.992;18.480;2023-04-25T04:57:00;68.68;;;24.92;;
37379;SDS011;23252;-33.992;18.480;2023-04-25T04:59:27;75.70;;;24.83;;
37379;SDS011;23252;-33.992;18.480;2023-04-25T05:02:08;80.77;;;26.20;;
37379;SDS011;23252;-33.992;18.480;2023-04-25T05:04:48;82.00;;;25.67;;
37379;SDS011;23252;-33.992;18.480;2023-04-25T05:07:33;97.10;;;27.65;;
37379;SDS011;23252;-33.992;18.480;2023-04-25T05:10:00;85.85;;;26.67;;
37379;SDS011;23252;-33.992;18.480;2023-04-25T05:12:27;84.20;;;25.93;;
37379;SDS011;23252;-33.992;18.480;2023-04-25T05:14:53;90.53;;;26.13;;
37379;SDS011;23252;-33.992;18.480;2023-04-25T05:17:20;99.47;;;29.42;;
37379;SDS011;23252;-33.992;18.480;2023-04-25T05:19:46;104.10;;;29.30;;
37379;SDS011;23252;-33.992;18.480;2023-04-25T05:22:13;89.85;;;27.95;;
37379;SDS011;23252;-33.992;18.480;2023-04-25T05:24:40;103.65;;;29.83;;
37379;SDS011;23252;-33.992;18.480;2023-04-25T05:27:06;107.15;;;30.75;;
37379;SDS011;23252;-33.992;18.480;2023-04-25T05:29:33;108.23;;;30.23;;
37379;SDS011;23252;-33.992;18.480;2023-04-25T05:32:00;95.53;;;29.67;;
37379;SDS011;23252;-33.992;18.480;2023-04-25T05:34:27;117.55;;;33.08;;
37379;SDS011;23252;-33.992;18.480;2023-04-25T05:36:56;118.00;;;33.72;;
37379;SDS011;23252;-33.992;18.480;2023-04-25T05:39:23;118.28;;;32.75;;
37379;SDS011;23252;-33.992;18.480;2023-04-25T05:41:50;102.47;;;31.40;;
37379;SDS011;23252;-33.992;18.480;2023-04-25T05:44:16;97.43;;;31.80;;
37379;SDS011;23252;-33.992;18.480;2023-04-25T05:46:43;105.33;;;32.67;;
37379;SDS011;23252;-33.992;18.480;2023-04-25T05:49:09;105.83;;;32.57;;
37379;SDS011;23252;-33.992;18.480;2023-04-25T05:51:36;97.95;;;30.95;;
37379;SDS011;23252;-33.992;18.480;2023-04-25T05:54:03;91.38;;;32.20;;
37379;SDS011;23252;-33.992;18.480;2023-04-25T05:56:29;85.15;;;30.10;;
37379;SDS011;23252;-33.992;18.480;2023-04-25T05:58:56;85.30;;;29.30;;
37379;SDS011;23252;-33.992;18.480;2023-04-25T06:01:22;86.57;;;30.73;;
37379;SDS011;23252;-33.992;18.480;2023-04-25T06:03:49;100.78;;;33.45;;
37379;SDS011;23252;-33.992;18.480;2023-04-25T06:06:18;91.88;;;31.10;;
37379;SDS011;23252;-33.992;18.480;2023-04-25T06:08:47;86.65;;;29.13;;
37379;SDS011;23252;-33.992;18.480;2023-04-25T06:11:13;87.28;;;29.92;;
37379;SDS011;23252;-33.992;18.480;2023-04-25T06:13:40;90.57;;;29.43;;
37379;SDS011;23252;-33.992;18.480;2023-04-25T06:16:06;88.00;;;30.47;;
37379;SDS011;23252;-33.992;18.480;2023-04-25T06:18:33;81.30;;;28.52;;
37379;SDS011;23252;-33.992;18.480;2023-04-25T06:21:00;74.47;;;27.87;;
37379;SDS011;23252;-33.992;18.480;2023-04-25T06:23:26;73.30;;;25.73;;
37379;SDS011;23252;-33.992;18.480;2023-04-25T06:25:53;64.47;;;26.80;;
37379;SDS011;23252;-33.992;18.480;2023-04-25T06:28:19;68.60;;;24.00;;
37379;SDS011;23252;-33.992;18.480;2023-04-25T06:30:47;65.20;;;23.67;;
37379;SDS011;23252;-33.992;18.480;2023-04-25T06:33:13;64.13;;;21.93;;
37379;SDS011;23252;-33.992;18.480;2023-04-25T06:35:40;56.28;;;20.52;;
37379;SDS011;23252;-33.992;18.480;2023-04-25T06:38:06;56.80;;;19.67;;
37379;SDS011;23252;-33.992;18.480;2023-04-25T06:43:00;57.03;;;19.77;;
37379;SDS011;23252;-33.992;18.480;2023-04-25T06:45:26;49.20;;;17.23;;
37379;SDS011;23252;-33.992;18.480;2023-04-25T06:47:53;45.60;;;17.27;;
37379;SDS011;23252;-33.992;18.480;2023-04-25T06:50:19;55.20;;;18.90;;
37379;SDS011;23252;-33.992;18.480;2023-04-25T06:52:46;56.07;;;17.57;;
37379;SDS011;23252;-33.992;18.480;2023-04-25T06:55:12;47.60;;;16.73;;
37379;SDS011;23252;-33.992;18.480;2023-04-25T06:57:39;47.77;;;17.13;;
37379;SDS011;23252;-33.992;18.480;2023-04-25T07:00:05;54.60;;;17.53;;
37379;SDS011;23252;-33.992;18.480;2023-04-25T07:02:35;51.53;;;16.77;;
37379;SDS011;23252;-33.992;18.480;2023-04-25T07:05:02;46.10;;;15.95;;
37379;SDS011;23252;-33.992;18.480;2023-04-25T07:07:29;47.80;;;15.80;;
37379;SDS011;23252;-33.992;18.480;2023-04-25T07:09:56;42.60;;;14.60;;
37379;SDS011;23252;-33.992;18.480;2023-04-25T07:12:22;40.60;;;13.30;;
37379;SDS011;23252;-33.992;18.480;2023-04-25T07:14:49;33.57;;;13.30;;
37379;SDS011;23252;-33.992;18.480;2023-04-25T07:17:15;40.30;;;13.60;;
37379;SDS011;23252;-33.992;18.480;2023-04-25T07:19:42;43.20;;;12.97;;
37379;SDS011;23252;-33.992;18.480;2023-04-25T07:22:08;46.53;;;12.75;;
37379;SDS011;23252;-33.992;18.480;2023-04-25T07:24:35;44.37;;;12.17;;
37379;SDS011;23252;-33.992;18.480;2023-04-25T07:27:01;46.10;;;12.33;;
37379;SDS011;23252;-33.992;18.480;2023-04-25T07:29:28;38.85;;;13.23;;
37379;SDS011;23252;-33.992;18.480;2023-04-25T07:31:56;53.00;;;12.73;;
37379;SDS011;23252;-33.992;18.480;2023-04-25T07:34:23;42.33;;;13.23;;
37379;SDS011;23252;-33.992;18.480;2023-04-25T07:36:49;32.25;;;11.13;;
37379;SDS011;23252;-33.992;18.480;2023-04-25T07:39:16;31.67;;;11.67;;
37379;SDS011;23252;-33.992;18.480;2023-04-25T07:41:42;45.40;;;12.37;;
37379;SDS011;23252;-33.992;18.480;2023-04-25T07:44:09;43.57;;;13.17;;
37379;SDS011;23252;-33.992;18.480;2023-04-25T07:46:35;44.20;;;12.15;;
37379;SDS011;23252;-33.992;18.480;2023-04-25T07:49:05;36.45;;;10.82;;
37379;SDS011;23252;-33.992;18.480;2023-04-25T07:51:31;34.27;;;11.97;;
37379;SDS011;23252;-33.992;18.480;2023-04-25T07:53:57;31.03;;;9.77;;
37379;SDS011;23252;-33.992;18.480;2023-04-25T07:56:24;28.75;;;8.30;;
37379;SDS011;23252;-33.992;18.480;2023-04-25T07:58:51;28.87;;;7.93;;
37379;SDS011;23252;-33.992;18.480;2023-04-25T08:01:17;24.35;;;5.75;;
37379;SDS011;23252;-33.992;18.480;2023-04-25T08:03:46;22.73;;;5.50;;
37379;SDS011;23252;-33.992;18.480;2023-04-25T08:06:13;21.00;;;5.73;;
37379;SDS011;23252;-33.992;18.480;2023-04-25T08:08:39;21.27;;;3.97;;
37379;SDS011;23252;-33.992;18.480;2023-04-25T08:11:06;18.80;;;2.95;;
37379;SDS011;23252;-33.992;18.480;2023-04-25T08:13:32;17.63;;;3.78;;
37379;SDS011;23252;-33.992;18.480;2023-04-25T08:15:59;14.60;;;3.10;;
37379;SDS011;23252;-33.992;18.480;2023-04-25T08:18:25;18.75;;;4.43;;
37379;SDS011;23252;-33.992;18.480;2023-04-25T08:20:52;15.60;;;2.85;;
37379;SDS011;23252;-33.992;18.480;2023-04-25T08:23:18;21.77;;;4.25;;
37379;SDS011;23252;-33.992;18.480;2023-04-25T08:25:45;15.07;;;2.97;;
37379;SDS011;23252;-33.992;18.480;2023-04-25T08:28:11;22.42;;;3.17;;
37379;SDS011;23252;-33.992;18.480;2023-04-25T08:30:38;15.00;;;3.15;;
37379;SDS011;23252;-33.992;18.480;2023-04-25T08:33:04;18.80;;;3.13;;
37379;SDS011;23252;-33.992;18.480;2023-04-25T08:35:31;19.70;;;3.00;;
37379;SDS011;23252;-33.992;18.480;2023-04-25T08:37:58;15.75;;;2.08;;
37379;SDS011;23252;-33.992;18.480;2023-04-25T08:40:26;12.70;;;2.40;;
37379;SDS011;23252;-33.992;18.480;2023-04-25T08:42:56;17.48;;;2.78;;
37379;SDS011;23252;-33.992;18.480;2023-04-25T08:45:24;11.65;;;2.70;;
37379;SDS011;23252;-33.992;18.480;2023-04-25T08:47:53;13.25;;;2.80;;
37379;SDS011;23252;-33.992;18.480;2023-04-25T08:50:22;13.43;;;2.70;;
37379;SDS011;23252;-33.992;18.480;2023-04-25T08:52:52;14.45;;;2.80;;
37379;SDS011;23252;-33.992;18.480;2023-04-25T08:55:20;16.70;;;2.60;;
37379;SDS011;23252;-33.992;18.480;2023-04-25T08:57:47;14.20;;;2.42;;
37379;SDS011;23252;-33.992;18.480;2023-04-25T09:00:15;15.15;;;2.60;;
37379;SDS011;23252;-33.992;18.480;2023-04-25T09:02:44;10.25;;;2.08;;
37379;SDS011;23252;-33.992;18.480;2023-04-25T09:05:12;10.07;;;2.47;;
37379;SDS011;23252;-33.992;18.480;2023-04-25T09:07:39;9.98;;;1.77;;
37379;SDS011;23252;-33.992;18.480;2023-04-25T09:10:06;11.27;;;1.83;;
37379;SDS011;23252;-33.992;18.480;2023-04-25T09:12:33;12.15;;;2.20;;
37379;SDS011;23252;-33.992;18.480;2023-04-25T09:15:05;9.75;;;1.80;;
37379;SDS011;23252;-33.992;18.480;2023-04-25T09:17:33;10.73;;;1.95;;
37379;SDS011;23252;-33.992;18.480;2023-04-25T09:20:13;9.43;;;2.40;;
37379;SDS011;23252;-33.992;18.480;2023-04-25T09:22:40;12.93;;;2.35;;
37379;SDS011;23252;-33.992;18.480;2023-04-25T09:27:35;13.32;;;2.42;;
37379;SDS011;23252;-33.992;18.480;2023-04-25T09:30:02;15.93;;;2.15;;
37379;SDS011;23252;-33.992;18.480;2023-04-25T09:32:28;12.85;;;2.30;;
37379;SDS011;23252;-33.992;18.480;2023-04-25T09:34:55;14.88;;;2.70;;
37379;SDS011;23252;-33.992;18.480;2023-04-25T09:37:29;12.48;;;2.65;;
37379;SDS011;23252;-33.992;18.480;2023-04-25T09:39:57;16.83;;;3.30;;
37379;SDS011;23252;-33.992;18.480;2023-04-25T09:42:26;11.90;;;2.38;;
37379;SDS011;23252;-33.992;18.480;2023-04-25T09:44:54;17.20;;;2.85;;
37379;SDS011;23252;-33.992;18.480;2023-04-25T09:47:25;6.85;;;1.40;;
37379;SDS011;23252;-33.992;18.480;2023-04-25T09:49:54;8.35;;;1.55;;
37379;SDS011;23252;-33.992;18.480;2023-04-25T09:52:21;11.75;;;2.13;;
37379;SDS011;23252;-33.992;18.480;2023-04-25T09:54:49;10.70;;;2.70;;
37379;SDS011;23252;-33.992;18.480;2023-04-25T09:57:20;14.65;;;3.42;;
37379;SDS011;23252;-33.992;18.480;2023-04-25T09:59:48;13.35;;;2.72;;
37379;SDS011;23252;-33.992;18.480;2023-04-25T10:02:19;11.43;;;2.92;;
37379;SDS011;23252;-33.992;18.480;2023-04-25T10:04:48;15.45;;;3.25;;
37379;SDS011;23252;-33.992;18.480;2023-04-25T10:07:26;17.35;;;3.05;;
37379;SDS011;23252;-33.992;18.480;2023-04-25T10:10:00;18.02;;;3.50;;
37379;SDS011;23252;-33.992;18.480;2023-04-25T10:12:28;14.13;;;3.03;;
37379;SDS011;23252;-33.992;18.480;2023-04-25T10:14:58;14.10;;;3.05;;
37379;SDS011;23252;-33.992;18.480;2023-04-25T10:17:26;16.27;;;4.07;;
37379;SDS011;23252;-33.992;18.480;2023-04-25T10:19:54;13.50;;;2.85;;
37379;SDS011;23252;-33.992;18.480;2023-04-25T10:22:23;14.55;;;2.97;;
37379;SDS011;23252;-33.992;18.480;2023-04-25T10:24:58;13.40;;;2.50;;
37379;SDS011;23252;-33.992;18.480;2023-04-25T10:27:28;17.02;;;3.40;;
37379;SDS011;23252;-33.992;18.480;2023-04-25T10:30:05;12.32;;;3.55;;
37379;SDS011;23252;-33.992;18.480;2023-04-25T10:32:38;13.98;;;2.92;;
37379;SDS011;23252;-33.992;18.480;2023-04-25T10:35:11;15.55;;;3.83;;
37379;SDS011;23252;-33.992;18.480;2023-04-25T10:40:28;13.95;;;3.58;;
37379;SDS011;23252;-33.992;18.480;2023-04-25T10:42:55;18.85;;;4.50;;
37379;SDS011;23252;-33.992;18.480;2023-04-25T10:45:51;15.48;;;3.20;;
37379;SDS011;23252;-33.992;18.480;2023-04-25T10:48:31;11.30;;;2.75;;
37379;SDS011;23252;-33.992;18.480;2023-04-25T10:51:17;19.55;;;3.55;;
37379;SDS011;23252;-33.992;18.480;2023-04-25T10:56:31;12.60;;;3.55;;
37379;SDS011;23252;-33.992;18.480;2023-04-25T10:59:18;17.70;;;3.13;;
37379;SDS011;23252;-33.992;18.480;2023-04-25T11:01:46;18.17;;;3.42;;
37379;SDS011;23252;-33.992;18.480;2023-04-25T11:04:23;19.77;;;3.35;;
37379;SDS011;23252;-33.992;18.480;2023-04-25T11:07:10;13.52;;;3.17;;
37379;SDS011;23252;-33.992;18.480;2023-04-25T11:09:49;19.20;;;4.65;;
37379;SDS011;23252;-33.992;18.480;2023-04-25T11:12:15;18.95;;;4.22;;
37379;SDS011;23252;-33.992;18.480;2023-04-25T11:14:42;13.98;;;2.83;;
37379;SDS011;23252;-33.992;18.480;2023-04-25T11:17:09;15.05;;;3.30;;
37379;SDS011;23252;-33.992;18.480;2023-04-25T11:22:02;15.15;;;3.67;;
37379;SDS011;23252;-33.992;18.480;2023-04-25T11:24:30;14.18;;;4.05;;
37379;SDS011;23252;-33.992;18.480;2023-04-25T11:27:06;17.13;;;3.30;;
37379;SDS011;23252;-33.992;18.480;2023-04-25T11:29:33;13.85;;;3.13;;
37379;SDS011;23252;-33.992;18.480;2023-04-25T11:32:00;22.80;;;4.25;;
37379;SDS011;23252;-33.992;18.480;2023-04-25T11:34:27;21.13;;;4.55;;
37379;SDS011;23252;-33.992;18.480;2023-04-25T11:36:58;17.85;;;3.85;;
37379;SDS011;23252;-33.992;18.480;2023-04-25T11:39:28;17.40;;;3.50;;
37379;SDS011;23252;-33.992;18.480;2023-04-25T11:41:55;21.33;;;4.88;;
37379;SDS011;23252;-33.992;18.480;2023-04-25T11:44:22;17.42;;;4.20;;
37379;SDS011;23252;-33.992;18.480;2023-04-25T11:49:15;15.40;;;4.30;;
37379;SDS011;23252;-33.992;18.480;2023-04-25T11:51:46;12.52;;;3.00;;
37379;SDS011;23252;-33.992;18.480;2023-04-25T11:54:14;14.55;;;3.78;;
37379;SDS011;23252;-33.992;18.480;2023-04-25T11:56:43;15.68;;;3.42;;
37379;SDS011;23252;-33.992;18.480;2023-04-25T11:59:10;12.40;;;2.90;;
37379;SDS011;23252;-33.992;18.480;2023-04-25T12:01:40;12.43;;;2.53;;
37379;SDS011;23252;-33.992;18.480;2023-04-25T12:04:20;14.57;;;3.05;;
37379;SDS011;23252;-33.992;18.480;2023-04-25T12:06:48;16.42;;;3.70;;
37379;SDS011;23252;-33.992;18.480;2023-04-25T12:09:27;15.80;;;3.40;;
37379;SDS011;23252;-33.992;18.480;2023-04-25T12:11:58;15.63;;;3.15;;
37379;SDS011;23252;-33.992;18.480;2023-04-25T12:14:29;23.55;;;3.10;;
37379;SDS011;23252;-33.992;18.480;2023-04-25T12:17:00;16.20;;;3.72;;
37379;SDS011;23252;-33.992;18.480;2023-04-25T12:19:33;17.63;;;3.28;;
37379;SDS011;23252;-33.992;18.480;2023-04-25T12:22:01;17.23;;;3.45;;
37379;SDS011;23252;-33.992;18.480;2023-04-25T12:24:28;14.57;;;3.15;;
37379;SDS011;23252;-33.992;18.480;2023-04-25T12:29:26;12.75;;;3.40;;
37379;SDS011;23252;-33.992;18.480;2023-04-25T12:31:54;15.40;;;3.83;;
37379;SDS011;23252;-33.992;18.480;2023-04-25T12:39:15;13.75;;;3.20;;
37379;SDS011;23252;-33.992;18.480;2023-04-25T12:41:43;13.48;;;3.13;;
37379;SDS011;23252;-33.992;18.480;2023-04-25T12:44:10;14.95;;;3.25;;
37379;SDS011;23252;-33.992;18.480;2023-04-25T12:46:37;15.43;;;2.97;;
37379;SDS011;23252;-33.992;18.480;2023-04-25T12:49:05;21.30;;;3.75;;
37379;SDS011;23252;-33.992;18.480;2023-04-25T12:51:35;15.55;;;3.00;;
37379;SDS011;23252;-33.992;18.480;2023-04-25T12:54:03;12.88;;;3.10;;
37379;SDS011;23252;-33.992;18.480;2023-04-25T12:56:34;12.88;;;2.80;;
37379;SDS011;23252;-33.992;18.480;2023-04-25T12:59:01;11.85;;;2.90;;
37379;SDS011;23252;-33.992;18.480;2023-04-25T13:01:28;17.75;;;3.42;;
37379;SDS011;23252;-33.992;18.480;2023-04-25T13:03:55;15.82;;;3.20;;
37379;SDS011;23252;-33.992;18.480;2023-04-25T13:06:22;12.48;;;3.00;;
37379;SDS011;23252;-33.992;18.480;2023-04-25T13:08:48;12.82;;;3.28;;
37379;SDS011;23252;-33.992;18.480;2023-04-25T13:11:15;14.77;;;3.20;;
37379;SDS011;23252;-33.992;18.480;2023-04-25T13:13:41;17.45;;;3.65;;
37379;SDS011;23252;-33.992;18.480;2023-04-25T13:16:09;16.00;;;3.13;;
37379;SDS011;23252;-33.992;18.480;2023-04-25T13:18:35;16.10;;;3.33;;
37379;SDS011;23252;-33.992;18.480;2023-04-25T13:21:02;17.45;;;3.17;;
37379;SDS011;23252;-33.992;18.480;2023-04-25T13:23:29;15.45;;;4.18;;
37379;SDS011;23252;-33.992;18.480;2023-04-25T13:25:56;18.92;;;4.22;;
37379;SDS011;23252;-33.992;18.480;2023-04-25T13:28:23;15.18;;;3.97;;
37379;SDS011;23252;-33.992;18.480;2023-04-25T13:30:50;14.20;;;2.83;;
37379;SDS011;23252;-33.992;18.480;2023-04-25T13:33:17;16.02;;;3.13;;
37379;SDS011;23252;-33.992;18.480;2023-04-25T13:35:45;15.85;;;3.33;;
37379;SDS011;23252;-33.992;18.480;2023-04-25T13:38:19;11.70;;;3.25;;
37379;SDS011;23252;-33.992;18.480;2023-04-25T13:40:49;15.02;;;2.72;;
37379;SDS011;23252;-33.992;18.480;2023-04-25T13:43:20;17.85;;;3.17;;
37379;SDS011;23252;-33.992;18.480;2023-04-25T13:45:49;12.85;;;2.60;;
37379;SDS011;23252;-33.992;18.480;2023-04-25T13:48:17;13.25;;;3.28;;
37379;SDS011;23252;-33.992;18.480;2023-04-25T13:50:45;13.93;;;2.78;;
37379;SDS011;23252;-33.992;18.480;2023-04-25T13:53:11;16.33;;;2.67;;
37379;SDS011;23252;-33.992;18.480;2023-04-25T13:55:38;13.23;;;2.95;;
37379;SDS011;23252;-33.992;18.480;2023-04-25T13:58:04;13.05;;;2.72;;
37379;SDS011;23252;-33.992;18.480;2023-04-25T14:00:35;15.57;;;3.40;;
37379;SDS011;23252;-33.992;18.480;2023-04-25T14:03:04;15.27;;;3.15;;
37379;SDS011;23252;-33.992;18.480;2023-04-25T14:05:32;15.10;;;3.20;;
37379;SDS011;23252;-33.992;18.480;2023-04-25T16:15:47;21.02;;;4.88;;
37379;SDS011;23252;-33.992;18.480;2023-04-25T16:18:13;20.98;;;4.25;;
37379;SDS011;23252;-33.992;18.480;2023-04-25T16:20:40;17.55;;;4.35;;
37379;SDS011;23252;-33.992;18.480;2023-04-25T16:23:07;16.80;;;3.93;;
37379;SDS011;23252;-33.992;18.480;2023-04-25T16:28:26;24.83;;;4.70;;
37379;SDS011;23252;-33.992;18.480;2023-04-25T16:30:53;21.63;;;5.05;;
37379;SDS011;23252;-33.992;18.480;2023-04-25T16:33:20;19.23;;;5.95;;
37379;SDS011;23252;-33.992;18.480;2023-04-25T16:35:46;25.10;;;6.40;;
37379;SDS011;23252;-33.992;18.480;2023-04-25T16:38:14;28.60;;;6.45;;
37379;SDS011;23252;-33.992;18.480;2023-04-25T16:40:40;24.13;;;6.27;;
37379;SDS011;23252;-33.992;18.480;2023-04-25T16:43:07;23.90;;;7.20;;
37379;SDS011;23252;-33.992;18.480;2023-04-25T16:45:33;21.08;;;6.00;;
37379;SDS011;23252;-33.992;18.480;2023-04-25T16:48:00;25.33;;;7.13;;
37379;SDS011;23252;-33.992;18.480;2023-04-25T16:50:26;20.20;;;5.47;;
37379;SDS011;23252;-33.992;18.480;2023-04-25T16:52:53;21.20;;;5.00;;
37379;SDS011;23252;-33.992;18.480;2023-04-25T16:55:19;17.77;;;4.70;;
37379;SDS011;23252;-33.992;18.480;2023-04-25T16:57:46;19.75;;;4.95;;
37379;SDS011;23252;-33.992;18.480;2023-04-25T17:00:13;20.60;;;4.57;;
37379;SDS011;23252;-33.992;18.480;2023-04-25T17:02:40;15.18;;;4.28;;
37379;SDS011;23252;-33.992;18.480;2023-04-25T17:05:06;17.37;;;4.40;;
37379;SDS011;23252;-33.992;18.480;2023-04-25T17:07:33;23.50;;;4.72;;